sensor_id;sensor_type;location;lat;lon;timestamp;pressure;altitude;pressure_sealevel;temperature;humidity
61136;BME280;47021;51.340;12.432;2023-05-08T05:08:24;101021.34;;;10.94;61.58
61136;BME280;47021;51.340;12.432;2023-05-08T05:11:27;101019.19;;;11.12;61.26
61136;BME280;47021;51.340;12.432;2023-05-08T05:14:20;101021.81;;;11.12;61.34
61136;BME280;47021;51.340;12.432;2023-05-08T05:16:50;101024.09;;;10.68;62.49
61136;BME280;47021;51.340;12.432;2023-05-08T05:19:16;101020.16;;;11.34;60.71
61136;BME280;47021;51.340;12.432;2023-05-08T05:21:43;101020.34;;;11.20;60.78
61136;BME280;47021;51.340;12.432;2023-05-08T05:24:21;101019.13;;;11.37;60.68
61136;BME280;47021;51.340;12.432;2023-05-08T05:37:44;101026.81;;;10.79;61.65
61136;BME280;47021;51.340;12.432;2023-05-08T05:40:24;101021.31;;;11.43;60.25
61136;BME280;47021;51.340;12.432;2023-05-08T05:43:15;101015.84;;;11.22;60.00
61136;BME280;47021;51.340;12.432;2023-05-08T05:48:49;101026.28;;;11.82;59.22
61136;BME280;47021;51.340;12.432;2023-05-08T05:53:59;101017.06;;;12.57;57.27
61136;BME280;47021;51.340;12.432;2023-05-08T05:56:29;101024.50;;;12.29;58.07
61136;BME280;47021;51.340;12.432;2023-05-08T06:10:17;101034.66;;;12.44;57.38
61136;BME280;47021;51.340;12.432;2023-05-08T06:12:55;101027.41;;;12.70;56.91
61136;BME280;47021;51.340;12.432;2023-05-08T06:15:20;101025.13;;;12.65;56.90
61136;BME280;47021;51.340;12.432;2023-05-08T06:17:49;101023.59;;;12.52;57.09
61136;BME280;47021;51.340;12.432;2023-05-08T06:22:50;101023.25;;;12.79;56.05
61136;BME280;47021;51.340;12.432;2023-05-08T06:25:18;101034.25;;;13.06;55.54
61136;BME280;47021;51.340;12.432;2023-05-08T06:39:01;101026.81;;;13.33;55.11
61136;BME280;47021;51.340;12.432;2023-05-08T06:44:17;101031.56;;;13.28;55.12
61136;BME280;47021;51.340;12.432;2023-05-08T12:17:17;100909.34;;;23.06;31.08
61136;BME280;47021;51.340;12.432;2023-05-08T12:25:26;100911.00;;;23.29;30.32
61136;BME280;47021;51.340;12.432;2023-05-08T12:52:47;100894.38;;;24.24;28.06
61136;BME280;47021;51.340;12.432;2023-05-08T13:46:08;100831.63;;;25.80;25.42
61136;BME280;47021;51.340;12.432;2023-05-08T13:48:33;100836.56;;;25.05;25.73
61136;BME280;47021;51.340;12.432;2023-05-08T13:51:13;100818.03;;;24.97;25.39
61136;BME280;47021;51.340;12.432;2023-05-08T13:53:40;100820.41;;;24.18;26.41
61136;BME280;47021;51.340;12.432;2023-05-08T13:56:06;100823.19;;;25.44;26.08
61136;BME280;47021;51.340;12.432;2023-05-08T13:58:37;100809.78;;;24.85;25.74
61136;BME280;47021;51.340;12.432;2023-05-08T14:01:09;100805.28;;;24.99;26.13
61136;BME280;47021;51.340;12.432;2023-05-08T14:03:35;100805.50;;;25.30;25.53
61136;BME280;47021;51.340;12.432;2023-05-08T14:06:00;100796.03;;;25.73;25.91
61136;BME280;47021;51.340;12.432;2023-05-08T14:08:34;100801.31;;;24.75;25.54
61136;BME280;47021;51.340;12.432;2023-05-08T14:11:00;100802.19;;;25.15;26.31
61136;BME280;47021;51.340;12.432;2023-05-08T14:15:56;100812.28;;;25.00;24.71
61136;BME280;47021;51.340;12.432;2023-05-08T14:18:23;100803.66;;;25.17;26.01
61136;BME280;47021;51.340;12.432;2023-05-08T14:21:00;100799.69;;;25.92;25.39
61136;BME280;47021;51.340;12.432;2023-05-08T14:23:34;100792.16;;;26.27;24.15
61136;BME280;47021;51.340;12.432;2023-05-08T14:26:01;100796.44;;;26.72;24.20
61136;BME280;47021;51.340;12.432;2023-05-08T14:28:26;100798.69;;;24.82;25.61
61136;BME280;47021;51.340;12.432;2023-05-08T14:30:52;100800.38;;;24.35;26.88
61136;BME280;47021;51.340;12.432;2023-05-08T14:33:23;100807.94;;;24.86;26.71
61136;BME280;47021;51.340;12.432;2023-05-08T14:35:48;100799.72;;;25.33;26.46
61136;BME280;47021;51.340;12.432;2023-05-08T14:38:26;100797.28;;;25.25;25.62
61136;BME280;47021;51.340;12.432;2023-05-08T14:41:04;100798.47;;;24.96;26.88
61136;BME280;47021;51.340;12.432;2023-05-08T14:43:36;100793.53;;;23.79;27.55
61136;BME280;47021;51.340;12.432;2023-05-08T14:46:01;100801.66;;;24.05;27.30
61136;BME280;47021;51.340;12.432;2023-05-08T14:48:39;100798.19;;;24.11;26.99
61136;BME280;47021;51.340;12.432;2023-05-08T14:51:04;100796.38;;;24.72;26.66
61136;BME280;47021;51.340;12.432;2023-05-08T14:53:31;100795.19;;;24.81;26.58
61136;BME280;47021;51.340;12.432;2023-05-08T14:55:59;100800.28;;;24.70;26.74
61136;BME280;47021;51.340;12.432;2023-05-08T14:58:26;100795.19;;;24.94;26.90
61136;BME280;47021;51.340;12.432;2023-05-08T15:00:51;100798.25;;;24.78;26.61
61136;BME280;47021;51.340;12.432;2023-05-08T15:03:23;100796.84;;;25.41;26.28
61136;BME280;47021;51.340;12.432;2023-05-08T15:05:48;100793.56;;;24.93;27.18
61136;BME280;47021;51.340;12.432;2023-05-08T15:08:14;100789.09;;;24.46;27.62
61136;BME280;47021;51.340;12.432;2023-05-08T15:10:47;100796.31;;;24.52;27.12
61136;BME280;47021;51.340;12.432;2023-05-08T15:13:12;100790.94;;;23.99;28.13
61136;BME280;47021;51.340;12.432;2023-05-08T15:15:39;100793.28;;;23.25;29.00
61136;BME280;47021;51.340;12.432;2023-05-08T15:18:11;100787.16;;;23.80;28.46
61136;BME280;47021;51.340;12.432;2023-05-08T15:20:37;100793.03;;;24.03;28.30
61136;BME280;47021;51.340;12.432;2023-05-08T15:23:04;100788.28;;;23.99;28.85
61136;BME280;47021;51.340;12.432;2023-05-08T15:25:30;100789.34;;;24.65;27.86
61136;BME280;47021;51.340;12.432;2023-05-08T15:27:56;100787.97;;;24.75;28.44
61136;BME280;47021;51.340;12.432;2023-05-08T15:30:29;100780.72;;;24.69;27.86
61136;BME280;47021;51.340;12.432;2023-05-08T15:35:38;100786.44;;;23.99;28.73
61136;BME280;47021;51.340;12.432;2023-05-08T15:38:04;100790.25;;;24.18;28.91
61136;BME280;47021;51.340;12.432;2023-05-08T15:40:30;100787.31;;;24.67;28.22
61136;BME280;47021;51.340;12.432;2023-05-08T15:42:56;100782.03;;;25.06;27.47
61136;BME280;47021;51.340;12.432;2023-05-08T15:45:21;100786.66;;;24.45;28.20
61136;BME280;47021;51.340;12.432;2023-05-08T15:47:52;100793.69;;;24.59;28.14
61136;BME280;47021;51.340;12.432;2023-05-08T15:50:26;100785.16;;;24.29;29.85
61136;BME280;47021;51.340;12.432;2023-05-08T15:52:52;100799.53;;;23.11;32.43
61136;BME280;47021;51.340;12.432;2023-05-08T15:55:19;100808.19;;;22.92;33.52
61136;BME280;47021;51.340;12.432;2023-05-08T15:57:44;100799.53;;;23.60;33.01
61136;BME280;47021;51.340;12.432;2023-05-08T16:00:09;100803.97;;;23.04;33.41
61136;BME280;47021;51.340;12.432;2023-05-08T16:02:41;100805.41;;;23.28;33.07
61136;BME280;47021;51.340;12.432;2023-05-08T16:05:14;100796.66;;;23.96;32.14
61136;BME280;47021;51.340;12.432;2023-05-08T16:07:45;100791.31;;;24.30;31.75
61136;BME280;47021;51.340;12.432;2023-05-08T16:10:12;100799.00;;;23.71;31.32
61136;BME280;47021;51.340;12.432;2023-05-08T16:12:40;100803.47;;;23.64;32.06
61136;BME280;47021;51.340;12.432;2023-05-08T16:15:07;100797.97;;;22.95;33.12
61136;BME280;47021;51.340;12.432;2023-05-08T16:17:33;100796.63;;;23.55;32.95
61136;BME280;47021;51.340;12.432;2023-05-08T16:20:11;100796.66;;;23.61;32.86
61136;BME280;47021;51.340;12.432;2023-05-08T16:22:36;100797.50;;;23.13;33.41
61136;BME280;47021;51.340;12.432;2023-05-08T16:25:02;100801.47;;;23.45;32.30
61136;BME280;47021;51.340;12.432;2023-05-08T16:27:33;100796.88;;;22.90;32.98
61136;BME280;47021;51.340;12.432;2023-05-08T16:30:00;100795.13;;;22.25;33.98
61136;BME280;47021;51.340;12.432;2023-05-08T16:32:25;100797.59;;;23.47;32.21
61136;BME280;47021;51.340;12.432;2023-05-08T16:37:32;100791.88;;;23.50;31.83
61136;BME280;47021;51.340;12.432;2023-05-08T16:40:04;100802.19;;;22.90;32.08
61136;BME280;47021;51.340;12.432;2023-05-08T16:42:29;100797.19;;;22.44;33.84
61136;BME280;47021;51.340;12.432;2023-05-08T16:44:54;100793.88;;;23.42;32.44
61136;BME280;47021;51.340;12.432;2023-05-08T16:47:20;100788.03;;;24.34;30.63
61136;BME280;47021;51.340;12.432;2023-05-08T16:49:45;100793.69;;;23.77;31.74
61136;BME280;47021;51.340;12.432;2023-05-08T16:52:16;100788.75;;;24.69;30.31
61136;BME280;47021;51.340;12.432;2023-05-08T16:54:44;100785.19;;;26.19;28.69
61136;BME280;47021;51.340;12.432;2023-05-08T16:57:17;100787.66;;;26.96;27.17
61136;BME280;47021;51.340;12.432;2023-05-08T16:59:44;100782.00;;;26.73;27.81
61136;BME280;47021;51.340;12.432;2023-05-08T17:02:11;100781.19;;;26.79;27.39
61136;BME280;47021;51.340;12.432;2023-05-08T17:04:36;100785.00;;;26.52;27.50
61136;BME280;47021;51.340;12.432;2023-05-08T17:07:01;100774.50;;;27.62;26.09
61136;BME280;47021;51.340;12.432;2023-05-08T17:09:32;100775.13;;;27.40;26.08
61136;BME280;47021;51.340;12.432;2023-05-08T17:12:04;100782.81;;;26.74;27.15
61136;BME280;47021;51.340;12.432;2023-05-08T17:14:29;100771.00;;;26.88;27.17
61136;BME280;47021;51.340;12.432;2023-05-08T17:16:54;100784.09;;;25.37;28.97
61136;BME280;47021;51.340;12.432;2023-05-08T17:19:20;100771.22;;;26.48;27.45
61136;BME280;47021;51.340;12.432;2023-05-08T17:21:46;100766.09;;;26.47;27.42
61136;BME280;47021;51.340;12.432;2023-05-08T17:24:12;100769.22;;;26.75;27.15
61136;BME280;47021;51.340;12.432;2023-05-08T17:26:51;100763.81;;;27.56;26.47
61136;BME280;47021;51.340;12.432;2023-05-08T17:29:34;100769.56;;;27.41;26.16
61136;BME280;47021;51.340;12.432;2023-05-08T17:32:06;100769.97;;;26.89;26.84
61136;BME280;47021;51.340;12.432;2023-05-08T17:34:33;100766.25;;;26.52;27.88
61136;BME280;47021;51.340;12.432;2023-05-08T17:36:59;100771.44;;;25.96;28.36
61136;BME280;47021;51.340;12.432;2023-05-08T17:41:52;100768.63;;;27.72;25.76
61136;BME280;47021;51.340;12.432;2023-05-08T17:44:20;100776.81;;;26.85;26.67
61136;BME280;47021;51.340;12.432;2023-05-08T17:49:29;100780.47;;;26.90;26.31
61136;BME280;47021;51.340;12.432;2023-05-08T17:51:55;100775.31;;;26.13;27.10
61136;BME280;47021;51.340;12.432;2023-05-08T17:54:20;100786.56;;;25.51;27.91
61136;BME280;47021;51.340;12.432;2023-05-08T17:56:52;100790.91;;;25.39;27.85
61136;BME280;47021;51.340;12.432;2023-05-08T17:59:17;100792.94;;;25.24;28.70
61136;BME280;47021;51.340;12.432;2023-05-08T18:01:42;100784.69;;;25.65;28.09
61136;BME280;47021;51.340;12.432;2023-05-08T18:04:20;100792.16;;;24.43;29.47
61136;BME280;47021;51.340;12.432;2023-05-08T18:09:42;100799.34;;;22.05;33.09
61136;BME280;47021;51.340;12.432;2023-05-08T18:12:08;100801.84;;;21.92;33.55
61136;BME280;47021;51.340;12.432;2023-05-08T18:14:34;100802.44;;;21.50;34.16
61136;BME280;47021;51.340;12.432;2023-05-08T18:17:11;100804.81;;;21.60;34.88
61136;BME280;47021;51.340;12.432;2023-05-08T18:19:44;100824.47;;;21.22;35.47
61136;BME280;47021;51.340;12.432;2023-05-08T18:22:11;100817.47;;;20.98;35.33
61136;BME280;47021;51.340;12.432;2023-05-08T18:24:54;100815.66;;;21.21;34.76
61136;BME280;47021;51.340;12.432;2023-05-08T18:30:04;100816.09;;;21.10;35.26
61136;BME280;47021;51.340;12.432;2023-05-08T18:32:29;100821.66;;;20.92;35.83
61136;BME280;47021;51.340;12.432;2023-05-08T18:35:00;100815.53;;;21.15;35.51
61136;BME280;47021;51.340;12.432;2023-05-08T18:37:25;100816.22;;;20.86;36.25
61136;BME280;47021;51.340;12.432;2023-05-08T18:42:31;100821.59;;;20.78;36.67
61136;BME280;47021;51.340;12.432;2023-05-08T18:44:56;100827.72;;;20.56;36.53
61136;BME280;47021;51.340;12.432;2023-05-08T18:47:22;100829.44;;;20.40;37.51
61136;BME280;47021;51.340;12.432;2023-05-08T18:49:49;100831.53;;;20.53;37.20
61136;BME280;47021;51.340;12.432;2023-05-08T18:52:23;100835.34;;;20.12;37.93
61136;BME280;47021;51.340;12.432;2023-05-08T18:54:48;100835.66;;;20.09;37.78
61136;BME280;47021;51.340;12.432;2023-05-08T18:57:21;100842.41;;;19.56;38.45
61136;BME280;47021;51.340;12.432;2023-05-08T18:59:53;100839.28;;;19.61;38.40
61136;BME280;47021;51.340;12.432;2023-05-08T19:02:18;100842.69;;;19.86;37.92
61136;BME280;47021;51.340;12.432;2023-05-08T19:04:45;100843.88;;;19.75;38.28
61136;BME280;47021;51.340;12.432;2023-05-08T19:07:19;100855.84;;;19.47;38.79
61136;BME280;47021;51.340;12.432;2023-05-08T19:12:29;100851.22;;;19.41;38.55
61136;BME280;47021;51.340;12.432;2023-05-08T19:20:42;100858.34;;;18.66;40.53
61136;BME280;47021;51.340;12.432;2023-05-08T19:25:54;100857.91;;;18.79;39.99
61136;BME280;47021;51.340;12.432;2023-05-08T19:28:27;100861.63;;;18.52;40.55
61136;BME280;47021;51.340;12.432;2023-05-08T19:30:56;100867.56;;;18.46;40.74
61136;BME280;47021;51.340;12.432;2023-05-08T19:33:43;100869.06;;;18.57;40.68
61136;BME280;47021;51.340;12.432;2023-05-08T19:39:16;100859.22;;;18.33;41.02
61136;BME280;47021;51.340;12.432;2023-05-08T19:41:55;100868.66;;;17.76;42.41
61136;BME280;47021;51.340;12.432;2023-05-08T22:18:15;100836.31;;;14.13;53.99
61136;BME280;47021;51.340;12.432;2023-05-08T22:20:40;100834.22;;;14.07;54.27
61136;BME280;47021;51.340;12.432;2023-05-08T22:23:07;100839.50;;;14.16;54.02
61136;BME280;47021;51.340;12.432;2023-05-08T22:28:02;100835.13;;;13.96;55.20
61136;BME280;47021;51.340;12.432;2023-05-08T22:30:37;100836.31;;;14.13;54.62
61136;BME280;47021;51.340;12.432;2023-05-08T22:33:02;100839.81;;;14.23;54.29
61136;BME280;47021;51.340;12.432;2023-05-08T22:35:28;100834.47;;;14.34;53.84
61136;BME280;47021;51.340;12.432;2023-05-08T22:37:55;100825.56;;;14.26;53.80
61136;BME280;47021;51.340;12.432;2023-05-08T22:40:33;100827.34;;;14.15;54.75
61136;BME280;47021;51.340;12.432;2023-05-08T22:42:58;100817.88;;;14.03;54.85
61136;BME280;47021;51.340;12.432;2023-05-08T22:45:36;100816.38;;;14.10;54.61
61136;BME280;47021;51.340;12.432;2023-05-08T22:48:07;100820.69;;;14.11;54.15
61136;BME280;47021;51.340;12.432;2023-05-08T22:53:08;100815.25;;;14.03;54.34
61136;BME280;47021;51.340;12.432;2023-05-08T22:55:34;100811.28;;;14.09;54.39
61136;BME280;47021;51.340;12.432;2023-05-08T22:58:10;100813.50;;;13.83;55.12
61136;BME280;47021;51.340;12.432;2023-05-08T23:00:48;100822.25;;;13.22;57.24
61136;BME280;47021;51.340;12.432;2023-05-08T23:03:15;100813.25;;;13.56;56.05
61136;BME280;47021;51.340;12.432;2023-05-08T23:05:42;100824.66;;;13.14;57.49
61136;BME280;47021;51.340;12.432;2023-05-08T23:08:09;100818.03;;;13.51;56.00
61136;BME280;47021;51.340;12.432;2023-05-08T23:10:43;100813.94;;;13.17;57.92
61136;BME280;47021;51.340;12.432;2023-05-08T23:13:08;100812.53;;;12.70;59.37
61136;BME280;47021;51.340;12.432;2023-05-08T23:15:33;100812.91;;;13.08;58.08
61136;BME280;47021;51.340;12.432;2023-05-08T23:17:58;100807.63;;;12.76;58.75
61136;BME280;47021;51.340;12.432;2023-05-08T23:20:23;100801.78;;;12.84;58.84
61136;BME280;47021;51.340;12.432;2023-05-08T23:22:49;100802.81;;;12.93;58.20
